Time;durP1;ratioP1;P1;durP2;ratioP2;P2;SDS_P1;SDS_P2;PMS_P1;PMS_P2;Temp;Humidity;BMP_temperature;BMP_pressure;BME280_temperature;BME280_humidity;BME280_pressure;Samples;Min_cycle;Max_cycle;Signal;HPM_P1;HPM_P2
2019/11/09 00:00:04;;;;;;;6.3;5.2;;;;;;;6.2;96.76074;995.5754;;;;
2019/11/09 00:02:29;;;;;;;5.2;4.6;;;;;;;6.24;96.45313;995.6094;;;;
2019/11/09 00:04:54;;;;;;;6;4.2;;;;;;;6.12;96.41406;995.6205;;;;
2019/11/09 00:07:19;;;;;;;6.6;4.1;;;;;;;6.15;96.75977;995.6281;;;;
2019/11/09 00:09:44;;;;;;;5.7;4.1;;;;;;;6.09;96.74707;995.7118;;;;
2019/11/09 00:12:10;;;;;;;6.4;4.2;;;;;;;6.1;96.4209;995.7173;;;;
2019/11/09 00:14:35;;;;;;;5.1;4.3;;;;;;;6.14;97.06348;995.8219;;;;
2019/11/09 00:17:00;;;;;;;6;4.7;;;;;;;6.12;96.95801;995.8606;;;;
2019/11/09 00:19:25;;;;;;;6.8;5.3;;;;;;;6.09;97.34766;995.8552;;;;
2019/11/09 00:21:50;;;;;;;7.6;5.4;;;;;;;6.1;97.10254;995.8933;;;;
2019/11/09 00:24:15;;;;;;;7.7;5.7;;;;;;;6.18;97.11914;995.9782;;;;
2019/11/09 00:26:40;;;;;;;7.2;5.8;;;;;;;6.16;97.43262;995.9581;;;;
2019/11/09 00:29:05;;;;;;;6.9;5.5;;;;;;;6.18;97.16699;995.946;;;;
2019/11/09 00:31:30;;;;;;;7.2;5.5;;;;;;;6.21;97.03711;995.9356;;;;
2019/11/09 00:33:55;;;;;;;5.8;4.7;;;;;;;6.27;96.14258;995.9426;;;;
2019/11/09 00:36:20;;;;;;;6.4;4.4;;;;;;;6.2;96.61523;995.9708;;;;
2019/11/09 00:38:46;;;;;;;5.7;5;;;;;;;6.18;96.71289;995.9957;;;;
2019/11/09 00:41:11;;;;;;;4.9;4.4;;;;;;;6.21;96.45898;995.9971;;;;
2019/11/09 00:43:36;;;;;;;6.6;4.3;;;;;;;6.29;96.20508;995.9695;;;;
2019/11/09 00:46:01;;;;;;;6.1;5;;;;;;;6.33;96.24707;995.97;;;;
2019/11/09 00:48:26;;;;;;;6.7;4.7;;;;;;;6.48;95.79199;996.0231;;;;
2019/11/09 00:50:51;;;;;;;6.7;4.7;;;;;;;6.44;95.5;996.0277;;;;
2019/11/09 00:53:16;;;;;;;5.5;4.4;;;;;;;6.42;95.41699;996.0555;;;;
2019/11/09 00:55:41;;;;;;;7.1;4.7;;;;;;;6.48;94.71484;996.0859;;;;
2019/11/09 00:58:07;;;;;;;5.3;4.4;;;;;;;6.31;95.9707;996.1024;;;;
2019/11/09 01:00:32;;;;;;;5.4;4.6;;;;;;;6.43;95.10156;996.0642;;;;
2019/11/09 01:02:57;;;;;;;5;4.5;;;;;;;6.36;94.53223;996.0987;;;;
2019/11/09 01:05:22;;;;;;;6;4;;;;;;;6.39;94.86621;996.0842;;;;
2019/11/09 01:07:47;;;;;;;6.5;4.4;;;;;;;6.32;95.22461;996.0673;;;;
2019/11/09 01:10:12;;;;;;;5.5;4.2;;;;;;;6.32;95.44922;996.0474;;;;
2019/11/09 01:12:37;;;;;;;5.5;4.2;;;;;;;6.28;95.25098;996.0621;;;;
2019/11/09 01:15:02;;;;;;;7;4.8;;;;;;;6.41;95.3125;996.1184;;;;
2019/11/09 01:17:27;;;;;;;4.7;4.1;;;;;;;6.54;94.62793;996.0814;;;;
2019/11/09 01:19:52;;;;;;;5;4.1;;;;;;;6.37;94.93945;996.1035;;;;
2019/11/09 01:22:17;;;;;;;5.8;3.8;;;;;;;6.41;95.12891;996.074;;;;
2019/11/09 01:24:43;;;;;;;5.3;3.6;;;;;;;6.58;93.50195;996.0421;;;;
2019/11/09 01:27:08;;;;;;;4.3;3.1;;;;;;;6.6;92.14453;996.0608;;;;
2019/11/09 01:29:33;;;;;;;3.4;3.1;;;;;;;6.46;92.69141;996.0629;;;;
2019/11/09 01:31:58;;;;;;;6.8;3.7;;;;;;;6.52;93.46582;995.9883;;;;
2019/11/09 01:34:25;;;;;;;4.4;3.3;;;;;;;6.47;94.11328;995.9753;;;;
2019/11/09 01:36:49;;;;;;;3.6;3.1;;;;;;;6.26;93.4873;995.96;;;;
2019/11/09 01:39:14;;;;;;;4;3.1;;;;;;;6.44;93.42676;995.9417;;;;
2019/11/09 01:41:39;;;;;;;3.5;3.1;;;;;;;6.58;93.625;995.9752;;;;
2019/11/09 01:44:04;;;;;;;4.3;3.2;;;;;;;6.7;92.05273;996.0014;;;;
2019/11/09 01:46:29;;;;;;;4.1;3.1;;;;;;;6.65;91.96289;995.9589;;;;
2019/11/09 01:48:54;;;;;;;3.8;2.8;;;;;;;6.58;91.78711;995.8828;;;;
2019/11/09 01:51:19;;;;;;;3.4;2.7;;;;;;;6.35;92.69141;995.902;;;;
2019/11/09 01:53:45;;;;;;;4;3;;;;;;;6.26;93.15918;995.8945;;;;
2019/11/09 01:56:10;;;;;;;4.2;3.2;;;;;;;6.3;94.06445;995.8709;;;;
2019/11/09 01:58:36;;;;;;;3.9;3;;;;;;;6.32;94.03223;995.8801;;;;
2019/11/09 02:01:00;;;;;;;4.3;2.9;;;;;;;6.23;93.83301;995.8918;;;;
2019/11/09 02:03:26;;;;;;;4.8;3;;;;;;;6.11;94;995.8934;;;;
2019/11/09 02:05:51;;;;;;;3.6;3.1;;;;;;;6.3;93.99414;995.883;;;;
2019/11/09 02:08:16;;;;;;;3.4;2.9;;;;;;;6.31;93.43164;995.9208;;;;
2019/11/09 02:10:41;;;;;;;3.7;3;;;;;;;6.25;94.25684;995.9556;;;;
2019/11/09 02:13:06;;;;;;;4.3;3.2;;;;;;;6.15;93.94922;995.9573;;;;
2019/11/09 02:15:31;;;;;;;4.4;2.9;;;;;;;6.21;94.08984;996.0189;;;;
2019/11/09 02:17:57;;;;;;;3.2;2.9;;;;;;;6.21;94.1123;996.0391;;;;
2019/11/09 02:20:22;;;;;;;3.5;2.9;;;;;;;6.23;93.37988;996.0549;;;;
2019/11/09 02:22:47;;;;;;;3.4;2.9;;;;;;;6.18;93.84375;996.0571;;;;
2019/11/09 02:25:12;;;;;;;6.2;2.9;;;;;;;6.19;93.25684;996.0306;;;;
2019/11/09 02:27:37;;;;;;;4.8;3.2;;;;;;;6.14;93.8584;995.9895;;;;
2019/11/09 02:30:02;;;;;;;3.6;3;;;;;;;6.16;94.04395;995.9702;;;;
2019/11/09 02:32:28;;;;;;;4.2;3.2;;;;;;;6.26;93.66895;995.9937;;;;
2019/11/09 02:34:53;;;;;;;4.7;3.2;;;;;;;6.2;93.37402;995.9933;;;;
2019/11/09 02:37:18;;;;;;;4.6;3.5;;;;;;;6.16;93.51172;995.9522;;;;
2019/11/09 02:39:43;;;;;;;5.2;3.6;;;;;;;6.23;93.66309;995.9449;;;;
2019/11/09 02:42:08;;;;;;;5.3;3.6;;;;;;;6.21;93.60254;995.9393;;;;
2019/11/09 02:44:33;;;;;;;3.9;3.5;;;;;;;6.21;93.77246;995.9928;;;;
2019/11/09 02:46:58;;;;;;;5.8;3.5;;;;;;;6.24;93.88086;996.0259;;;;
2019/11/09 02:49:24;;;;;;;6.1;4;;;;;;;6.32;93.46582;996.0306;;;;
2019/11/09 02:51:49;;;;;;;4.7;3.9;;;;;;;6.19;93.65527;996.019;;;;
2019/11/09 02:54:14;;;;;;;5;3.7;;;;;;;6.25;93.97363;996.054;;;;
2019/11/09 02:56:39;;;;;;;5.3;3.8;;;;;;;6.37;93.34082;996.0514;;;;
2019/11/09 02:59:04;;;;;;;6.8;4.1;;;;;;;6.33;93.69629;996.0701;;;;
2019/11/09 03:01:30;;;;;;;5.4;4.1;;;;;;;6.3;93.60938;996.0945;;;;
2019/11/09 03:03:55;;;;;;;5.6;4.6;;;;;;;6.28;94.16016;996.0909;;;;
2019/11/09 03:06:20;;;;;;;6;4.9;;;;;;;6.34;93.98145;996.084;;;;
2019/11/09 03:08:45;;;;;;;6.2;4.8;;;;;;;6.25;94.65527;996.0947;;;;
2019/11/09 03:11:10;;;;;;;6.3;5.2;;;;;;;6.32;95.34961;996.1311;;;;
2019/11/09 03:13:43;;;;;;;7.2;5.6;;;;;;;6.36;94.80371;996.1195;;;;
2019/11/09 03:16:47;;;;;;;6.7;5.6;;;;;;;6.28;94.91992;996.0994;;;;
2019/11/09 03:18:25;;;;;;;8.5;5.8;;;;;;;6.3;94.69727;996.1541;;;;
2019/11/09 03:20:51;;;;;;;6.7;5.7;;;;;;;6.36;94.87207;996.1675;;;;
2019/11/09 03:23:16;;;;;;;7.8;6.3;;;;;;;6.35;94.69629;996.1348;;;;
2019/11/09 03:25:41;;;;;;;7.1;6.2;;;;;;;6.33;95.17969;996.1443;;;;
2019/11/09 03:28:06;;;;;;;7.1;6.2;;;;;;;6.33;95.13574;996.1669;;;;
2019/11/09 03:30:31;;;;;;;7.6;6.4;;;;;;;6.41;95.5625;996.1184;;;;
2019/11/09 03:32:56;;;;;;;7.9;6.3;;;;;;;6.37;94.57715;996.1445;;;;
2019/11/09 03:35:22;;;;;;;7.6;6.1;;;;;;;6.48;94.80664;996.169;;;;
2019/11/09 03:37:47;;;;;;;8.4;6.6;;;;;;;6.44;94.38867;996.1395;;;;
2019/11/09 03:40:12;;;;;;;6.6;5.9;;;;;;;6.55;93.95898;996.1389;;;;
2019/11/09 03:42:37;;;;;;;8.1;6.1;;;;;;;6.39;94.80762;996.1275;;;;
2019/11/09 03:45:02;;;;;;;8.3;6.5;;;;;;;6.46;94.01855;996.1325;;;;
2019/11/09 03:47:27;;;;;;;6.9;6;;;;;;;6.5;93.56152;996.1628;;;;
2019/11/09 03:49:52;;;;;;;7.6;6.4;;;;;;;6.51;93.71289;996.1368;;;;
2019/11/09 03:52:17;;;;;;;7.8;5.8;;;;;;;6.59;93.2207;996.1296;;;;
2019/11/09 03:54:42;;;;;;;8.5;6.2;;;;;;;6.53;93.21582;996.142;;;;
2019/11/09 03:57:08;;;;;;;6.9;5.8;;;;;;;6.51;93.07617;996.1902;;;;
2019/11/09 04:03:00;;;;;;;7.7;5.7;;;;;;;6.55;93.41504;996.1934;;;;
2019/11/09 04:05:25;;;;;;;8.6;6.2;;;;;;;6.51;93.79199;996.2067;;;;
2019/11/09 04:07:50;;;;;;;8.2;6.2;;;;;;;6.55;93.62988;996.2589;;;;
2019/11/09 04:10:15;;;;;;;8.2;5.9;;;;;;;6.48;94.03613;996.2598;;;;
2019/11/09 04:12:40;;;;;;;8.1;6.3;;;;;;;6.61;93.28125;996.2327;;;;
2019/11/09 04:15:05;;;;;;;8;6.2;;;;;;;6.57;93.61328;996.2292;;;;
2019/11/09 04:17:30;;;;;;;8.5;6.7;;;;;;;6.42;94.56641;996.2523;;;;
2019/11/09 04:19:56;;;;;;;9;6.8;;;;;;;6.41;94.66602;996.2905;;;;
2019/11/09 04:22:21;;;;;;;8.4;6.8;;;;;;;6.42;94.77051;996.3209;;;;
2019/11/09 04:24:46;;;;;;;10.7;7.5;;;;;;;6.51;94.58594;996.3605;;;;
2019/11/09 04:27:11;;;;;;;9.1;7.1;;;;;;;6.46;94.80078;996.3821;;;;
2019/11/09 04:29:36;;;;;;;8.9;6.9;;;;;;;6.55;94.19727;996.4383;;;;
2019/11/09 04:32:01;;;;;;;9.3;7.2;;;;;;;6.39;94.73047;996.4082;;;;
2019/11/09 04:34:26;;;;;;;11.2;7.8;;;;;;;6.41;95.04102;996.4232;;;;
2019/11/09 04:36:51;;;;;;;11;7.9;;;;;;;6.4;95.00488;996.5061;;;;
2019/11/09 04:39:16;;;;;;;10.6;7.6;;;;;;;6.37;94.99609;996.4536;;;;
2019/11/09 04:41:41;;;;;;;9.6;7.7;;;;;;;6.5;94.74121;996.4451;;;;
2019/11/09 04:44:06;;;;;;;8.6;7.5;;;;;;;6.47;94.64648;996.4686;;;;
2019/11/09 04:46:32;;;;;;;8.9;7.2;;;;;;;6.37;94.18262;996.4869;;;;
2019/11/09 04:48:57;;;;;;;9.9;7.3;;;;;;;6.48;94.5459;996.5074;;;;
2019/11/09 04:51:22;;;;;;;9.6;7.3;;;;;;;6.47;94.95215;996.5937;;;;
2019/11/09 04:53:47;;;;;;;10.2;7.8;;;;;;;6.43;95.14648;996.5901;;;;
2019/11/09 04:56:12;;;;;;;9.7;7.8;;;;;;;6.43;95.01074;996.5497;;;;
2019/11/09 04:58:37;;;;;;;10.6;7.2;;;;;;;6.44;94.20898;996.5778;;;;
2019/11/09 05:01:02;;;;;;;9.8;6.8;;;;;;;6.56;93.53223;996.6011;;;;
2019/11/09 05:03:27;;;;;;;10.7;6.7;;;;;;;6.46;94.04297;996.6456;;;;
2019/11/09 05:05:52;;;;;;;7.9;6.4;;;;;;;6.46;93.82813;996.6339;;;;
2019/11/09 05:08:18;;;;;;;8.9;7.1;;;;;;;6.42;94.08984;996.668;;;;
2019/11/09 05:10:43;;;;;;;9;6.7;;;;;;;6.45;94.0625;996.7177;;;;
2019/11/09 05:13:08;;;;;;;8.4;6.6;;;;;;;6.54;93.41309;996.6992;;;;
2019/11/09 05:15:33;;;;;;;9.8;6.8;;;;;;;6.67;93.41895;996.7035;;;;
2019/11/09 05:17:58;;;;;;;9.5;6.8;;;;;;;6.46;93.87305;996.7084;;;;
2019/11/09 05:20:23;;;;;;;10.3;6.9;;;;;;;6.45;93.8125;996.6716;;;;
2019/11/09 05:22:48;;;;;;;8.9;6.7;;;;;;;6.41;93.66699;996.699;;;;
2019/11/09 05:25:13;;;;;;;9.7;6.8;;;;;;;6.39;94.03906;996.6854;;;;
2019/11/09 05:27:38;;;;;;;10.4;6.8;;;;;;;6.47;92.80957;996.6844;;;;
2019/11/09 05:30:04;;;;;;;9.1;6.5;;;;;;;6.36;93.71582;996.7729;;;;
2019/11/09 05:32:29;;;;;;;10.1;7;;;;;;;6.29;94.09668;996.7708;;;;
2019/11/09 05:34:54;;;;;;;9.7;7.1;;;;;;;6.28;94.35547;996.8045;;;;
2019/11/09 05:37:19;;;;;;;10.4;7.5;;;;;;;6.25;94.50586;996.8364;;;;
2019/11/09 05:39:44;;;;;;;10.6;7.1;;;;;;;6.27;94.57813;996.807;;;;
2019/11/09 05:42:09;;;;;;;8.6;6.6;;;;;;;6.26;94.67969;996.8358;;;;
2019/11/09 05:44:34;;;;;;;11.2;6.9;;;;;;;6.27;94.70215;996.8723;;;;
2019/11/09 05:46:59;;;;;;;8.8;7.3;;;;;;;6.28;94.96484;996.9055;;;;
2019/11/09 05:49:24;;;;;;;9.2;6.8;;;;;;;6.3;94.24609;996.8753;;;;
2019/11/09 05:51:49;;;;;;;12.6;7.5;;;;;;;6.24;95.07031;996.8923;;;;
2019/11/09 05:54:14;;;;;;;10.3;7.6;;;;;;;6.19;95.18359;996.9412;;;;
2019/11/09 05:56:39;;;;;;;10.3;7.6;;;;;;;6.15;95.32227;996.9384;;;;
2019/11/09 05:59:05;;;;;;;9.9;7.5;;;;;;;6.28;94.75;996.9055;;;;
2019/11/09 06:01:30;;;;;;;10.3;7.3;;;;;;;6.2;95.24219;996.9811;;;;
2019/11/09 06:03:55;;;;;;;9.8;7.3;;;;;;;6.24;95.36523;996.9622;;;;
2019/11/09 06:06:20;;;;;;;11.1;7.6;;;;;;;6.21;95.3252;997.0158;;;;
2019/11/09 06:08:45;;;;;;;10.1;7.6;;;;;;;6.27;95.01953;996.9564;;;;
2019/11/09 06:11:10;;;;;;;11.2;8.1;;;;;;;6.3;95.25488;996.9684;;;;
2019/11/09 06:13:36;;;;;;;9.6;7.7;;;;;;;6.19;95.61426;996.9739;;;;
2019/11/09 06:16:01;;;;;;;11.3;8.3;;;;;;;6.24;95.7168;997.0067;;;;
2019/11/09 06:18:26;;;;;;;12.6;7.9;;;;;;;6.27;95.42969;996.9771;;;;
2019/11/09 06:20:51;;;;;;;11.6;8;;;;;;;6.21;95.53906;996.9866;;;;
2019/11/09 06:23:16;;;;;;;12.8;8.4;;;;;;;6.24;95.32031;996.9585;;;;
2019/11/09 06:25:41;;;;;;;10.7;8;;;;;;;6.2;95.09668;996.9969;;;;
2019/11/09 06:28:06;;;;;;;12.5;8.4;;;;;;;6.22;95.4043;997.0304;;;;
2019/11/09 06:30:32;;;;;;;11.9;8.6;;;;;;;6.23;95.6582;997.0333;;;;
2019/11/09 06:32:57;;;;;;;12;8.3;;;;;;;6.22;95.06445;997.079;;;;
2019/11/09 06:35:22;;;;;;;12;8.4;;;;;;;6.1;95.44824;997.1198;;;;
2019/11/09 06:37:47;;;;;;;13.4;8.7;;;;;;;6.26;95.00879;997.1053;;;;
2019/11/09 06:40:12;;;;;;;13.2;8.5;;;;;;;6.23;95.08887;997.1719;;;;
2019/11/09 06:42:38;;;;;;;11.1;8.5;;;;;;;6.24;94.75293;997.1544;;;;
2019/11/09 06:45:03;;;;;;;11.3;8.3;;;;;;;6.37;94.32813;997.1601;;;;
2019/11/09 06:47:28;;;;;;;10.9;8.4;;;;;;;6.36;94.25977;997.1755;;;;
2019/11/09 06:49:53;;;;;;;12.9;8.9;;;;;;;6.29;94.58398;997.2269;;;;
2019/11/09 06:52:18;;;;;;;13.5;9;;;;;;;6.24;94.86621;997.2098;;;;
2019/11/09 06:54:43;;;;;;;12.9;8.4;;;;;;;6.24;94.76465;997.3014;;;;
2019/11/09 06:57:08;;;;;;;12.4;8.8;;;;;;;6.2;95.17383;997.3113;;;;
2019/11/09 06:59:34;;;;;;;12.3;9.2;;;;;;;6.2;95.19824;997.3781;;;;
2019/11/09 07:01:59;;;;;;;12.6;8.9;;;;;;;6.35;95.27637;997.4088;;;;
2019/11/09 07:04:24;;;;;;;12.7;8.8;;;;;;;6.43;94.56641;997.4321;;;;
2019/11/09 07:06:49;;;;;;;12.5;8.2;;;;;;;6.47;93.70508;997.4138;;;;
2019/11/09 07:09:14;;;;;;;13.9;9;;;;;;;6.6;93.41504;997.4667;;;;
2019/11/09 07:11:39;;;;;;;13.1;8.4;;;;;;;6.56;93.71191;997.5316;;;;
2019/11/09 07:14:04;;;;;;;12.5;8.6;;;;;;;6.65;93.41504;997.5823;;;;
2019/11/09 07:16:29;;;;;;;11.4;8;;;;;;;6.68;92.69336;997.5535;;;;
2019/11/09 07:18:55;;;;;;;11.8;8.2;;;;;;;6.65;92.21094;997.5666;;;;
2019/11/09 07:21:20;;;;;;;12;8.1;;;;;;;6.74;92.18457;997.5784;;;;
2019/11/09 07:23:45;;;;;;;12.1;8.7;;;;;;;6.7;92.30176;997.5988;;;;
2019/11/09 07:26:10;;;;;;;11.7;8.5;;;;;;;6.79;91.85645;997.6511;;;;
2019/11/09 07:28:35;;;;;;;11.2;8.2;;;;;;;6.94;91.00195;997.663;;;;
2019/11/09 07:31:00;;;;;;;11.4;8.1;;;;;;;6.87;91.46484;997.6897;;;;
2019/11/09 07:33:25;;;;;;;10.3;8.4;;;;;;;6.87;91.05664;997.7267;;;;
2019/11/09 07:35:50;;;;;;;10.7;8;;;;;;;6.94;90.08203;997.7572;;;;
2019/11/09 07:38:16;;;;;;;12;8.4;;;;;;;6.97;90.42773;997.7656;;;;
2019/11/09 07:40:41;;;;;;;10.2;7.8;;;;;;;7.03;89.97754;997.7836;;;;
2019/11/09 07:43:06;;;;;;;11.8;8.4;;;;;;;6.91;90.23535;997.8049;;;;
2019/11/09 07:45:31;;;;;;;12.3;9;;;;;;;6.94;90.25195;997.8715;;;;
2019/11/09 07:47:56;;;;;;;10.5;8.3;;;;;;;7.26;88.77734;997.8108;;;;
2019/11/09 07:50:21;;;;;;;11.8;8.1;;;;;;;7.22;89.4248;997.8853;;;;
2019/11/09 07:52:47;;;;;;;10.8;7.9;;;;;;;7.3;88.48926;997.925;;;;
2019/11/09 07:55:12;;;;;;;11.9;8.2;;;;;;;7.23;89.13281;997.9453;;;;
2019/11/09 07:57:37;;;;;;;13;8.5;;;;;;;7.21;89.25488;997.9977;;;;
2019/11/09 08:00:02;;;;;;;10.7;8.1;;;;;;;7.22;88.6543;997.976;;;;
2019/11/09 08:02:27;;;;;;;10;8;;;;;;;7.43;88.83301;997.9893;;;;
2019/11/09 08:04:52;;;;;;;11.2;7.7;;;;;;;7.65;87.4248;998.0502;;;;
2019/11/09 08:07:17;;;;;;;10.9;7.9;;;;;;;7.6;87.37891;998.019;;;;
2019/11/09 08:09:43;;;;;;;10.4;7.9;;;;;;;7.81;87.06934;997.9706;;;;
2019/11/09 08:12:08;;;;;;;11;8.4;;;;;;;7.86;86.48633;997.9865;;;;
2019/11/09 08:14:33;;;;;;;10.5;7.8;;;;;;;8.01;85.32227;997.9626;;;;
2019/11/09 08:16:58;;;;;;;10.7;7.9;;;;;;;8.13;86.08691;997.9724;;;;
2019/11/09 08:19:23;;;;;;;9.5;7.5;;;;;;;8.26;84.49512;997.9265;;;;
2019/11/09 08:21:48;;;;;;;11.1;7.5;;;;;;;8.39;84.78418;997.9899;;;;
2019/11/09 08:24:14;;;;;;;9.5;7.4;;;;;;;8.1;85.0459;997.9594;;;;
2019/11/09 08:26:39;;;;;;;10.6;7.9;;;;;;;8.18;84.62793;998.0327;;;;
2019/11/09 08:29:04;;;;;;;10.6;7.7;;;;;;;7.91;86.36035;998.0083;;;;
2019/11/09 08:31:29;;;;;;;10.8;7.9;;;;;;;7.93;86.33203;998.033;;;;
2019/11/09 08:33:54;;;;;;;10.2;8.5;;;;;;;7.83;86.71973;998.0405;;;;
2019/11/09 08:36:19;;;;;;;10.4;7.8;;;;;;;7.95;86.66699;998.0099;;;;
2019/11/09 08:38:44;;;;;;;10.4;7.3;;;;;;;8.48;85.0166;998.0471;;;;
2019/11/09 08:41:10;;;;;;;10.9;7.6;;;;;;;8.62;83.92969;998.0513;;;;
2019/11/09 08:43:35;;;;;;;9.2;7.1;;;;;;;8.58;83.99902;998.0939;;;;
2019/11/09 08:46:00;;;;;;;9.6;8;;;;;;;8.47;84.37793;998.0854;;;;
2019/11/09 08:48:25;;;;;;;9;7.4;;;;;;;8.89;82.53223;998.0347;;;;
2019/11/09 08:50:50;;;;;;;9.6;7.9;;;;;;;8.44;84.10938;998.068;;;;
2019/11/09 08:53:15;;;;;;;10.2;8;;;;;;;8.44;83.87207;998.0717;;;;
2019/11/09 08:55:40;;;;;;;10.9;8.4;;;;;;;8.1;84.33789;998.0911;;;;
2019/11/09 08:58:05;;;;;;;13;9.3;;;;;;;7.9;84.93848;998.0803;;;;
2019/11/09 09:00:31;;;;;;;12.8;9.7;;;;;;;7.96;84.45996;997.9656;;;;
2019/11/09 09:02:56;;;;;;;11;9;;;;;;;8.12;84.80859;998.0504;;;;
2019/11/09 09:05:21;;;;;;;11.1;8.6;;;;;;;8.53;82.79395;997.988;;;;
2019/11/09 09:07:46;;;;;;;13.3;8.8;;;;;;;8.45;83.23535;998.029;;;;
2019/11/09 09:10:11;;;;;;;12;9.2;;;;;;;8.59;82.47363;998.0153;;;;
2019/11/09 09:12:36;;;;;;;13.1;8.7;;;;;;;8.48;82.31641;998.0123;;;;
2019/11/09 09:15:01;;;;;;;12;8.4;;;;;;;8.24;83.79688;998.0756;;;;
2019/11/09 09:17:27;;;;;;;11.6;8.7;;;;;;;8.42;82.93262;998.0672;;;;
2019/11/09 09:19:52;;;;;;;11.6;8.8;;;;;;;8.27;83.72266;998.0657;;;;
2019/11/09 09:22:17;;;;;;;11.5;8.8;;;;;;;8.44;83.25684;998.0676;;;;
2019/11/09 09:24:42;;;;;;;11.8;8.4;;;;;;;8.56;82.74219;998.127;;;;
2019/11/09 09:27:07;;;;;;;11.9;8.6;;;;;;;8.29;83.10156;998.0514;;;;
2019/11/09 09:29:33;;;;;;;12.5;8.5;;;;;;;8.55;82.89941;998.1177;;;;
2019/11/09 09:31:58;;;;;;;11.1;8.1;;;;;;;8.52;82.68945;998.0844;;;;
2019/11/09 09:34:23;;;;;;;10.6;8.2;;;;;;;8.35;83.1123;998.0407;;;;
2019/11/09 09:36:48;;;;;;;11.9;8.4;;;;;;;8.66;82.36328;998.0664;;;;
2019/11/09 09:39:13;;;;;;;12.2;8.6;;;;;;;8.67;82.36523;998.1096;;;;
2019/11/09 09:41:38;;;;;;;12.9;8.6;;;;;;;8.6;82.16895;998.1008;;;;
2019/11/09 09:44:04;;;;;;;10.6;8.1;;;;;;;8.91;81.32715;998.0829;;;;
2019/11/09 09:46:29;;;;;;;10.3;7.8;;;;;;;9.06;81.07031;998.1086;;;;
2019/11/09 09:48:54;;;;;;;13.2;9;;;;;;;9.21;80.02637;998.0725;;;;
2019/11/09 09:51:19;;;;;;;11.6;8.2;;;;;;;9.24;79.36914;998.079;;;;
2019/11/09 09:53:44;;;;;;;10.2;7.5;;;;;;;9.15;79.86523;998.0756;;;;
2019/11/09 09:56:09;;;;;;;11.7;7.8;;;;;;;9.22;80.07422;998.0358;;;;
2019/11/09 09:58:35;;;;;;;10.8;7.3;;;;;;;9.44;79.52051;998.0027;;;;
2019/11/09 10:01:00;;;;;;;9.9;7.6;;;;;;;9.32;78.76758;997.9679;;;;
2019/11/09 10:03:25;;;;;;;10.5;6.9;;;;;;;9.52;78.18945;997.9658;;;;
2019/11/09 10:05:50;;;;;;;8.5;6.7;;;;;;;8.97;79.5918;998.0485;;;;
2019/11/09 10:08:15;;;;;;;10;6.7;;;;;;;9.12;79.37109;997.9908;;;;
2019/11/09 10:10:41;;;;;;;9.3;6.5;;;;;;;9.09;79.4668;998.0403;;;;
2019/11/09 10:13:05;;;;;;;9.2;6.3;;;;;;;9.07;78.71094;998.0081;;;;
2019/11/09 10:15:31;;;;;;;9.7;6.5;;;;;;;9.06;79.54199;998.0391;;;;
2019/11/09 10:17:56;;;;;;;9.9;6.3;;;;;;;8.97;79.04395;998.0333;;;;
2019/11/09 10:20:21;;;;;;;8.6;6.3;;;;;;;9.06;78.61719;998.085;;;;
2019/11/09 10:23:27;;;;;;;9;6.1;;;;;;;8.91;79.19434;998.0185;;;;
2019/11/09 10:25:11;;;;;;;9.9;6.4;;;;;;;8.71;79.60254;997.9645;;;;
2019/11/09 10:27:37;;;;;;;13.2;8.7;;;;;;;8.64;80.43359;998.0862;;;;
2019/11/09 10:30:02;;;;;;;10.5;7.9;;;;;;;8.88;79.69141;998.0413;;;;
2019/11/09 10:32:27;;;;;;;11.9;8.5;;;;;;;8.93;79.04883;998.0527;;;;
2019/11/09 10:34:53;;;;;;;13.8;8.7;;;;;;;9.12;79.05176;998.0273;;;;
2019/11/09 10:37:18;;;;;;;10.1;6.6;;;;;;;8.86;79.92676;998.0419;;;;
2019/11/09 10:39:43;;;;;;;10.9;7.5;;;;;;;9.11;79.18652;997.9665;;;;
2019/11/09 10:42:08;;;;;;;10.5;7.6;;;;;;;9.04;79.7666;998.0103;;;;
2019/11/09 10:44:33;;;;;;;9.9;7.4;;;;;;;8.96;80.02539;997.9587;;;;
2019/11/09 10:46:58;;;;;;;9.7;7.1;;;;;;;9.03;79.42285;997.9614;;;;
2019/11/09 10:49:24;;;;;;;8.4;6.7;;;;;;;8.99;78.49219;997.9258;;;;
2019/11/09 10:51:49;;;;;;;13.7;9.1;;;;;;;9.18;78.66211;997.9114;;;;
2019/11/09 10:54:14;;;;;;;9.8;7.3;;;;;;;9.03;77.93945;997.8237;;;;
2019/11/09 10:56:39;;;;;;;15;10.4;;;;;;;9.36;78.02246;997.803;;;;
2019/11/09 10:59:04;;;;;;;10;6.9;;;;;;;9.2;76.08789;997.7873;;;;
2019/11/09 11:01:29;;;;;;;9;6.3;;;;;;;9.03;77.40332;997.7977;;;;
2019/11/09 11:03:54;;;;;;;9;5.9;;;;;;;9.2;76.34863;997.7184;;;;
2019/11/09 11:06:19;;;;;;;8.3;5.3;;;;;;;9.04;75.96777;997.7202;;;;
2019/11/09 11:08:44;;;;;;;10.9;6.8;;;;;;;9.05;77.06445;997.7307;;;;
2019/11/09 11:11:09;;;;;;;7.5;5.6;;;;;;;9.24;76.27637;997.6969;;;;
2019/11/09 11:13:35;;;;;;;8.6;5.7;;;;;;;9.27;76.29297;997.6183;;;;
2019/11/09 11:16:00;;;;;;;7.5;5.5;;;;;;;9.5;75.61426;997.5875;;;;
2019/11/09 11:18:25;;;;;;;9.5;5.7;;;;;;;9.43;75.3623;997.582;;;;
2019/11/09 11:20:50;;;;;;;9.5;5.6;;;;;;;9.5;75.67188;997.55;;;;
2019/11/09 11:23:15;;;;;;;7.6;5.5;;;;;;;9.81;74.63965;997.5646;;;;
2019/11/09 11:25:40;;;;;;;13.1;8.3;;;;;;;9.51;74.54297;997.5798;;;;
2019/11/09 11:28:06;;;;;;;28.7;14.9;;;;;;;9.26;75.39063;997.5403;;;;
2019/11/09 11:30:31;;;;;;;45.1;22.9;;;;;;;8.95;76.20215;997.5322;;;;
2019/11/09 11:32:56;;;;;;;14.2;9.7;;;;;;;9.25;75.51367;997.5022;;;;
2019/11/09 11:35:21;;;;;;;18.6;11.1;;;;;;;9.13;76.08594;997.49;;;;
2019/11/09 11:37:46;;;;;;;17.2;11.7;;;;;;;9.25;76.22266;997.4539;;;;
2019/11/09 11:40:12;;;;;;;10.7;8;;;;;;;9.45;76.75879;997.4473;;;;
2019/11/09 11:42:37;;;;;;;10;6.8;;;;;;;9.72;75.60645;997.4122;;;;
2019/11/09 11:45:02;;;;;;;8.6;5.5;;;;;;;9.77;75.0791;997.4068;;;;
2019/11/09 11:47:27;;;;;;;10.7;6.2;;;;;;;9.41;76.72949;997.4398;;;;
2019/11/09 11:49:53;;;;;;;10.1;7.4;;;;;;;9.34;77.20703;997.3943;;;;
2019/11/09 11:52:18;;;;;;;8.4;6.3;;;;;;;9.36;77.46191;997.36;;;;
2019/11/09 11:54:43;;;;;;;11.6;7.6;;;;;;;9.33;77.24023;997.3153;;;;
2019/11/09 11:57:08;;;;;;;9.5;6.9;;;;;;;9.16;77.9873;997.3453;;;;
2019/11/09 11:59:33;;;;;;;8.7;5.9;;;;;;;9.16;77.6543;997.3095;;;;
2019/11/09 12:01:58;;;;;;;9.6;7.2;;;;;;;9.04;78.6709;997.3044;;;;
2019/11/09 12:04:23;;;;;;;10.9;7.4;;;;;;;9.04;78.27051;997.3116;;;;
2019/11/09 12:06:49;;;;;;;10.5;6.5;;;;;;;9.26;77.375;997.2713;;;;
2019/11/09 12:09:15;;;;;;;7.6;6.5;;;;;;;9.08;78.23438;997.3164;;;;
2019/11/09 12:11:39;;;;;;;14;10.1;;;;;;;9.07;78.57324;997.313;;;;
2019/11/09 12:14:04;;;;;;;15.9;10.5;;;;;;;9.28;78.22461;997.2906;;;;
2019/11/09 12:16:30;;;;;;;10.5;7.2;;;;;;;9.37;78.36719;997.2445;;;;
2019/11/09 12:18:55;;;;;;;10.9;7.6;;;;;;;9.23;78.35254;997.2159;;;;
2019/11/09 12:21:20;;;;;;;8.6;6.1;;;;;;;9.57;77.74023;997.1911;;;;
2019/11/09 12:23:45;;;;;;;10.8;7.4;;;;;;;9.42;78.03223;997.2098;;;;
2019/11/09 12:26:10;;;;;;;8.4;6;;;;;;;9.57;77.64941;997.1479;;;;
2019/11/09 12:28:36;;;;;;;9.8;5.4;;;;;;;9.6;77.67676;997.1601;;;;
2019/11/09 12:31:01;;;;;;;9.4;5.6;;;;;;;9.84;75.4668;997.175;;;;
2019/11/09 12:33:26;;;;;;;8.4;5.6;;;;;;;9.63;75.95605;997.1707;;;;
2019/11/09 12:35:51;;;;;;;8.4;5.1;;;;;;;9.75;75.93262;997.1886;;;;
2019/11/09 12:38:17;;;;;;;8.1;5.6;;;;;;;9.78;76.10938;997.1683;;;;
2019/11/09 12:40:42;;;;;;;7.9;5.1;;;;;;;9.52;76.91992;997.1387;;;;
2019/11/09 12:43:07;;;;;;;7.2;4.6;;;;;;;9.74;78.29492;997.1936;;;;
2019/11/09 12:45:32;;;;;;;8.4;5.1;;;;;;;10.24;78.72949;997.1628;;;;
2019/11/09 12:47:57;;;;;;;7;4.5;;;;;;;10.39;76.29688;997.0829;;;;
2019/11/09 12:50:22;;;;;;;7;4;;;;;;;10.38;76.41992;997.0854;;;;
2019/11/09 12:52:47;;;;;;;7.3;4;;;;;;;10.23;76.04004;997.0425;;;;
2019/11/09 12:55:12;;;;;;;5.9;3.7;;;;;;;10.27;75.28125;997.0438;;;;
2019/11/09 12:57:37;;;;;;;7.4;4.4;;;;;;;10.58;75.06934;997.0226;;;;
2019/11/09 13:00:03;;;;;;;6.9;3.8;;;;;;;10.54;76.02637;997.0569;;;;
2019/11/09 13:02:28;;;;;;;6;3.7;;;;;;;10.32;74.90039;997.0737;;;;
2019/11/09 13:04:53;;;;;;;7;4.2;;;;;;;10.32;75.00293;997.0578;;;;
2019/11/09 13:07:18;;;;;;;7.3;4.1;;;;;;;10.54;73.51953;996.9943;;;;
2019/11/09 13:09:43;;;;;;;6.3;4.1;;;;;;;10.51;73.49023;997.03;;;;
2019/11/09 13:12:08;;;;;;;5.8;3.8;;;;;;;10.22;74.62012;996.9553;;;;
2019/11/09 13:14:33;;;;;;;5.3;3.4;;;;;;;9.92;74.58008;996.9493;;;;
2019/11/09 13:16:58;;;;;;;4.8;3.3;;;;;;;10.13;74.33008;996.9334;;;;
2019/11/09 13:19:23;;;;;;;5.4;3.5;;;;;;;10.47;74.51465;996.8883;;;;
2019/11/09 13:21:48;;;;;;;4.5;3.1;;;;;;;10.52;73.10254;996.9142;;;;
2019/11/09 13:24:13;;;;;;;5.6;3.7;;;;;;;10.33;73.06055;996.9277;;;;
2019/11/09 13:26:39;;;;;;;6.6;4.1;;;;;;;10.52;73.61914;996.9146;;;;
2019/11/09 13:29:04;;;;;;;5.5;3.5;;;;;;;10.92;71.66895;996.8631;;;;
2019/11/09 13:31:29;;;;;;;5.7;3.1;;;;;;;10.88;70.49609;996.8397;;;;
2019/11/09 13:33:54;;;;;;;8.8;7;;;;;;;11.12;70.85449;996.8472;;;;
2019/11/09 13:36:19;;;;;;;5.5;3.7;;;;;;;10.94;71.65039;996.855;;;;
2019/11/09 13:38:44;;;;;;;6.4;3.5;;;;;;;11.05;69.59375;996.8466;;;;
2019/11/09 13:41:09;;;;;;;5.7;3;;;;;;;10.63;69.58301;996.8699;;;;
2019/11/09 13:43:34;;;;;;;8.3;5.2;;;;;;;10.18;70.85059;996.84;;;;
2019/11/09 13:46:00;;;;;;;9;5.3;;;;;;;10.14;71.2207;996.8489;;;;
2019/11/09 13:48:25;;;;;;;6.1;3.9;;;;;;;10.07;70.54492;996.8933;;;;
2019/11/09 13:50:50;;;;;;;6;4.4;;;;;;;10.09;70.12598;996.8642;;;;
2019/11/09 13:53:15;;;;;;;6;3.6;;;;;;;9.94;70.31836;996.8837;;;;
2019/11/09 13:55:40;;;;;;;5.8;3.5;;;;;;;9.91;71.47852;996.906;;;;
2019/11/09 13:58:05;;;;;;;5.9;3.5;;;;;;;9.89;71.625;996.8645;;;;
2019/11/09 14:00:30;;;;;;;4.4;2.5;;;;;;;10.08;70.25098;996.8853;;;;
2019/11/09 14:02:55;;;;;;;5.3;2.5;;;;;;;10.01;69.39258;996.8424;;;;
2019/11/09 14:05:20;;;;;;;4.9;2.2;;;;;;;10.04;68.84863;996.82;;;;
2019/11/09 14:07:46;;;;;;;5.1;3;;;;;;;10.31;69.16797;996.7498;;;;
2019/11/09 14:10:11;;;;;;;5.1;2.8;;;;;;;10.64;69.2998;996.7047;;;;
2019/11/09 14:12:36;;;;;;;3.9;2.6;;;;;;;10.46;68.97266;996.6935;;;;
2019/11/09 14:15:01;;;;;;;4.2;2.6;;;;;;;10.59;69.59961;996.6887;;;;
2019/11/09 14:17:26;;;;;;;10.5;6.7;;;;;;;10.56;68.39355;996.6803;;;;
2019/11/09 14:19:51;;;;;;;8.4;5.1;;;;;;;10.58;67.2627;996.7175;;;;
2019/11/09 14:22:16;;;;;;;5.5;3.2;;;;;;;10.49;68.51953;996.6448;;;;